createdAt,value
2022-08-17T00:00:49.296Z,17.70
2022-08-17T00:04:20.844Z,17.68
2022-08-17T00:08:15.916Z,17.63
2022-08-17T00:11:42.402Z,17.57
2022-08-17T00:15:44.201Z,17.50
2022-08-17T00:19:09.475Z,17.44
2022-08-17T00:22:43.046Z,17.42
2022-08-17T00:26:44.462Z,17.42
2022-08-17T00:30:06.146Z,17.41
2022-08-17T00:33:42.447Z,17.37
2022-08-17T00:37:36.081Z,17.34
2022-08-17T00:41:01.326Z,17.28
2022-08-17T00:44:34.693Z,17.25
2022-08-17T00:48:28.845Z,17.26
2022-08-17T00:52:04.609Z,17.24
2022-08-17T00:55:34.490Z,17.19
2022-08-17T00:59:34.174Z,17.16
2022-08-17T01:03:00.425Z,17.12
2022-08-17T01:06:33.588Z,17.10
2022-08-17T01:10:58.158Z,17.11
2022-08-17T01:13:54.133Z,17.11
2022-08-17T01:17:30.690Z,17.08
2022-08-17T01:21:15.241Z,17.04
2022-08-17T01:24:48.687Z,17.01
2022-08-17T01:28:52.438Z,16.97
2022-08-17T01:32:07.092Z,16.93
2022-08-17T01:36:01.474Z,16.88
2022-08-17T01:39:34.520Z,16.91
2022-08-17T01:43:07.407Z,16.94
2022-08-17T01:46:37.461Z,16.91
2022-08-17T01:50:19.367Z,16.86
2022-08-17T01:54:13.452Z,16.80
2022-08-17T01:57:35.237Z,16.82
2022-08-17T02:01:34.129Z,16.85
2022-08-17T02:04:55.684Z,16.86
2022-08-17T02:08:39.244Z,16.87
2022-08-17T02:12:37.733Z,16.86
2022-08-17T02:15:52.035Z,16.85
2022-08-17T02:19:31.321Z,16.85
2022-08-17T02:23:27.933Z,16.82
2022-08-17T02:26:49.427Z,16.78
2022-08-17T02:31:00.194Z,16.75
2022-08-17T02:34:25.419Z,16.68
2022-08-17T02:38:01.869Z,16.60
2022-08-17T02:41:39.545Z,16.55
2022-08-17T02:45:19.146Z,16.53
2022-08-17T02:48:51.354Z,16.47
2022-08-17T02:52:43.101Z,16.44
2022-08-17T02:56:06.939Z,16.43
2022-08-17T02:59:48.346Z,16.41
2022-08-17T03:03:20.221Z,16.32
2022-08-17T03:06:57.011Z,16.25
2022-08-17T03:10:34.337Z,16.22
2022-08-17T03:14:31.636Z,16.22
2022-08-17T03:17:54.887Z,16.22
2022-08-17T03:21:30.291Z,16.21
2022-08-17T03:25:10.778Z,16.21
2022-08-17T03:28:45.476Z,16.21
2022-08-17T03:32:20.937Z,16.20
2022-08-17T03:36:16.817Z,16.18
2022-08-17T03:39:39.027Z,16.20
2022-08-17T03:43:16.225Z,16.23
2022-08-17T03:47:10.715Z,16.26
2022-08-17T03:51:14.662Z,16.25
2022-08-17T03:54:55.726Z,16.22
2022-08-17T03:58:36.946Z,16.26
2022-08-17T04:02:26.871Z,16.31
2022-08-17T04:05:51.168Z,16.32
2022-08-17T04:09:28.066Z,16.33
2022-08-17T04:13:03.210Z,16.36
2022-08-17T04:16:57.778Z,16.34
2022-08-17T04:20:21.304Z,16.31
2022-08-17T04:23:58.090Z,16.34
2022-08-17T04:27:32.862Z,16.40
2022-08-17T04:31:12.129Z,16.46
2022-08-17T04:35:05.511Z,16.49
2022-08-17T04:38:46.211Z,16.53
2022-08-17T04:42:26.370Z,16.59
2022-08-17T04:45:57.386Z,16.69
2022-08-17T04:49:24.560Z,16.77
2022-08-17T04:53:21.162Z,16.88
2022-08-17T04:56:43.063Z,17.00
2022-08-17T05:00:20.463Z,17.15
2022-08-17T05:04:34.559Z,17.32
2022-08-17T05:08:02.384Z,17.51
2022-08-17T05:11:35.435Z,17.64
2022-08-17T05:15:33.210Z,17.75
2022-08-17T05:19:16.162Z,17.84
2022-08-17T05:22:51.420Z,17.92
2022-08-17T05:26:24.815Z,17.98
2022-08-17T05:29:51.206Z,18.02
2022-08-17T05:33:31.232Z,18.11
2022-08-17T05:37:04.592Z,18.22
2022-08-17T05:40:42.920Z,18.35
2022-08-17T05:44:37.054Z,18.46
2022-08-17T05:47:59.355Z,18.55
2022-08-17T05:51:52.451Z,18.65
2022-08-17T05:55:35.033Z,18.80
2022-08-17T05:59:22.612Z,18.94
2022-08-17T06:03:22.485Z,19.11
2022-08-17T06:06:49.937Z,19.24
2022-08-17T06:10:47.124Z,19.33
2022-08-17T06:14:25.555Z,19.42
2022-08-17T06:17:59.360Z,19.54
2022-08-17T06:21:32.146Z,19.67
2022-08-17T06:25:14.132Z,19.77
2022-08-17T06:28:51.285Z,19.88
2022-08-17T06:32:17.271Z,20.03
2022-08-17T06:36:26.445Z,20.17
2022-08-17T06:40:29.135Z,20.35
2022-08-17T06:44:10.123Z,20.52
2022-08-17T06:48:12.418Z,20.68
2022-08-17T06:52:01.236Z,20.82
2022-08-17T06:55:38.170Z,20.97
2022-08-17T06:59:26.340Z,21.15
2022-08-17T07:03:40.914Z,21.36
2022-08-17T07:07:26.931Z,21.59
2022-08-17T07:10:55.745Z,21.76
2022-08-17T07:14:52.412Z,21.90
2022-08-17T07:18:13.939Z,22.09
2022-08-17T07:22:24.802Z,22.27
2022-08-17T07:26:08.443Z,22.42
2022-08-17T07:29:32.803Z,22.56
2022-08-17T07:33:29.411Z,22.74
2022-08-17T07:37:05.442Z,22.93
2022-08-17T07:40:33.460Z,23.07
2022-08-17T07:44:12.610Z,23.24
2022-08-17T07:48:09.394Z,23.40
2022-08-17T07:51:39.637Z,23.57
2022-08-17T07:55:27.935Z,23.71
2022-08-17T07:59:07.212Z,23.86
2022-08-17T08:03:01.548Z,24.00
2022-08-17T08:06:54.687Z,24.19
2022-08-17T08:10:31.242Z,24.33
2022-08-17T08:13:53.276Z,24.43
2022-08-17T08:17:36.475Z,24.51
2022-08-17T08:21:08.883Z,24.59
2022-08-17T08:24:43.625Z,24.69
2022-08-17T08:28:47.078Z,24.76
2022-08-17T08:33:03.544Z,24.73
2022-08-17T08:37:16.584Z,24.87
2022-08-17T08:41:21.891Z,24.94
2022-08-17T08:45:08.914Z,24.96
2022-08-17T08:49:14.470Z,25.09
2022-08-17T08:52:58.550Z,25.26
2022-08-17T08:57:24.302Z,25.44
2022-08-17T09:00:53.349Z,25.60
2022-08-17T09:04:27.311Z,25.62
2022-08-17T09:08:28.985Z,25.75
2022-08-17T09:12:17.094Z,25.78
2022-08-17T09:15:57.373Z,25.88
2022-08-17T09:20:05.353Z,26.10
2022-08-17T09:24:14.686Z,26.29
2022-08-17T09:28:10.016Z,26.52
2022-08-17T09:31:48.909Z,26.75
2022-08-17T09:35:44.235Z,26.99
2022-08-17T09:39:39.549Z,27.12
2022-08-17T09:43:42.448Z,27.15
2022-08-17T09:47:30.694Z,27.30
2022-08-17T09:51:52.206Z,27.40
2022-08-17T09:55:14.143Z,27.48
2022-08-17T09:59:05.630Z,27.49
2022-08-17T10:02:50.511Z,27.73
2022-08-17T10:06:30.536Z,27.88
2022-08-17T10:10:29.099Z,27.76
2022-08-17T10:14:02.027Z,27.62
2022-08-17T10:18:25.641Z,27.81
2022-08-17T10:22:35.363Z,27.99
2022-08-17T10:26:21.302Z,27.92
2022-08-17T10:30:07.686Z,27.63
2022-08-17T10:33:50.979Z,27.53
2022-08-17T10:37:21.540Z,27.79
2022-08-17T10:41:40.565Z,28.09
2022-08-17T10:45:15.535Z,28.28
2022-08-17T10:48:40.188Z,28.46
2022-08-17T10:52:19.179Z,28.63
2022-08-17T10:56:11.978Z,28.91
2022-08-17T10:59:54.744Z,29.14
2022-08-17T11:03:21.282Z,29.34
2022-08-17T11:07:28.002Z,29.23
2022-08-17T11:11:35.693Z,28.87
2022-08-17T11:15:30.848Z,28.66
2022-08-17T11:19:36.658Z,28.83
2022-08-17T11:23:26.377Z,28.86
2022-08-17T11:27:12.263Z,28.64
2022-08-17T11:30:59.381Z,28.59
2022-08-17T11:34:43.989Z,28.90
2022-08-17T11:38:45.523Z,29.24
2022-08-17T11:42:45.885Z,29.36
2022-08-17T11:46:54.089Z,29.11
2022-08-17T11:51:25.039Z,28.84
2022-08-17T11:54:48.149Z,28.83
2022-08-17T11:58:44.645Z,29.16
2022-08-17T12:02:29.647Z,29.66
2022-08-17T12:06:30.309Z,30.13
2022-08-17T12:10:15.528Z,30.50
2022-08-17T12:13:49.937Z,30.61
2022-08-17T12:17:40.614Z,30.69
2022-08-17T12:21:31.438Z,30.58
2022-08-17T12:25:00.219Z,30.60
2022-08-17T12:28:34.712Z,30.39
2022-08-17T12:32:20.133Z,30.14
2022-08-17T12:35:45.204Z,30.35
2022-08-17T12:39:50.815Z,30.77
2022-08-17T12:43:26.997Z,31.17
2022-08-17T12:47:00.885Z,31.46
2022-08-17T12:50:30.259Z,31.27
2022-08-17T12:54:53.598Z,30.78
2022-08-17T12:58:22.732Z,30.50
2022-08-17T13:01:54.140Z,30.19
2022-08-17T13:05:37.156Z,30.26
2022-08-17T13:09:23.025Z,30.66
2022-08-17T13:13:03.856Z,31.00
2022-08-17T13:16:35.601Z,31.35
2022-08-17T13:20:15.203Z,31.70
2022-08-17T13:24:02.018Z,31.81
2022-08-17T13:27:52.974Z,31.42
2022-08-17T13:31:28.401Z,31.14
2022-08-17T13:35:15.037Z,31.43
2022-08-17T13:38:47.209Z,31.79
2022-08-17T13:42:52.157Z,31.94
2022-08-17T13:46:21.916Z,31.67
2022-08-17T13:49:52.401Z,31.13
2022-08-17T13:53:50.487Z,30.79
2022-08-17T13:57:13.132Z,30.60
2022-08-17T14:00:51.666Z,30.50
2022-08-17T14:04:31.710Z,30.49
2022-08-17T14:08:22.240Z,30.65
2022-08-17T14:12:05.917Z,30.74
2022-08-17T14:15:56.180Z,30.82
2022-08-17T14:19:29.238Z,30.97
2022-08-17T14:23:10.477Z,31.14
2022-08-17T14:26:52.423Z,31.01
2022-08-17T14:30:14.588Z,30.71
2022-08-17T14:34:10.106Z,30.94
2022-08-17T14:37:32.148Z,31.15
2022-08-17T14:41:27.129Z,31.23
2022-08-17T14:44:49.072Z,31.39
2022-08-17T14:48:25.769Z,31.91
2022-08-17T14:52:21.357Z,32.48
2022-08-17T14:55:47.073Z,32.78
2022-08-17T14:59:38.666Z,33.02
2022-08-17T15:03:19.545Z,33.40
2022-08-17T15:06:41.186Z,33.61
2022-08-17T15:10:18.422Z,33.56
2022-08-17T15:13:55.311Z,33.36
2022-08-17T15:17:44.801Z,33.55
2022-08-17T15:21:16.053Z,33.98
2022-08-17T15:24:53.870Z,34.36
2022-08-17T15:28:29.493Z,34.40
2022-08-17T15:32:32.227Z,34.10
2022-08-17T15:36:12.458Z,33.87
2022-08-17T15:39:53.073Z,33.45
2022-08-17T15:43:27.098Z,32.87
2022-08-17T15:46:51.992Z,32.40
2022-08-17T15:50:27.994Z,31.91
2022-08-17T15:54:19.171Z,31.37
2022-08-17T15:58:03.846Z,31.00
2022-08-17T16:03:13.078Z,30.63
2022-08-17T16:05:17.518Z,30.38
2022-08-17T16:09:06.235Z,30.33
2022-08-17T16:12:48.691Z,30.29
2022-08-17T16:16:11.170Z,30.29
2022-08-17T16:19:48.099Z,30.33
2022-08-17T16:23:26.810Z,30.23
2022-08-17T16:27:01.326Z,30.20
2022-08-17T16:30:57.942Z,30.28
2022-08-17T16:34:42.799Z,30.32
2022-08-17T16:38:23.332Z,30.42
2022-08-17T16:42:05.309Z,30.45
2022-08-17T16:45:34.615Z,30.42
2022-08-17T16:49:27.577Z,30.43
2022-08-17T16:53:17.861Z,30.37
2022-08-17T16:56:59.407Z,30.36
2022-08-17T17:00:23.955Z,30.37
2022-08-17T17:04:18.636Z,30.33
2022-08-17T17:07:52.152Z,30.26
2022-08-17T17:11:43.157Z,30.09
2022-08-17T17:15:05.896Z,29.94
2022-08-17T17:18:48.247Z,29.79
2022-08-17T17:22:28.463Z,29.63
2022-08-17T17:26:08.058Z,29.43
2022-08-17T17:29:49.925Z,29.24
2022-08-17T17:33:42.468Z,28.99
2022-08-17T17:37:12.276Z,28.64
2022-08-17T17:40:44.951Z,28.32
2022-08-17T17:44:24.703Z,27.97
2022-08-17T17:47:55.629Z,27.60
2022-08-17T17:52:10.816Z,27.31
2022-08-17T17:55:43.346Z,26.95
2022-08-17T17:59:25.250Z,26.62
2022-08-17T18:03:04.612Z,26.28
2022-08-17T18:06:29.707Z,25.98
2022-08-17T18:10:32.658Z,25.78
2022-08-17T18:14:14.885Z,25.61
2022-08-17T18:17:38.090Z,25.45
2022-08-17T18:21:19.552Z,25.25
2022-08-17T18:24:57.334Z,25.06
2022-08-17T18:28:33.189Z,24.88
2022-08-17T18:32:23.017Z,24.69
2022-08-17T18:35:59.266Z,24.52
2022-08-17T18:39:42.553Z,24.37
2022-08-17T18:43:14.384Z,24.21
2022-08-17T18:46:45.026Z,24.06
2022-08-17T18:50:26.394Z,23.88
2022-08-17T18:54:08.154Z,23.72
2022-08-17T18:57:45.871Z,23.60
2022-08-17T19:01:21.031Z,23.53
2022-08-17T19:04:59.380Z,23.46
2022-08-17T19:08:29.371Z,23.34
2022-08-17T19:12:39.087Z,23.22
2022-08-17T19:16:37.345Z,23.00
2022-08-17T19:20:23.465Z,22.73
2022-08-17T19:24:09.690Z,22.51
2022-08-17T19:27:57.388Z,22.41
2022-08-17T19:31:40.292Z,22.38
2022-08-17T19:35:03.379Z,22.37
2022-08-17T19:39:38.241Z,22.38
2022-08-17T19:43:32.961Z,22.31
2022-08-17T19:47:11.108Z,22.17
2022-08-17T19:50:45.879Z,22.06
2022-08-17T19:54:26.569Z,21.95
2022-08-17T19:58:00.150Z,21.84
2022-08-17T20:02:01.308Z,21.68
2022-08-17T20:06:12.111Z,21.49
2022-08-17T20:09:39.478Z,21.37
2022-08-17T20:13:33.334Z,21.36
2022-08-17T20:17:16.010Z,21.35
2022-08-17T20:20:48.252Z,21.32
2022-08-17T20:24:43.005Z,21.27
2022-08-17T20:28:17.506Z,21.20
2022-08-17T20:31:47.687Z,21.11
2022-08-17T20:35:28.244Z,21.03
2022-08-17T20:38:58.981Z,20.97
2022-08-17T20:42:33.938Z,20.90
2022-08-17T20:46:34.269Z,20.83
2022-08-17T20:50:10.703Z,20.78
2022-08-17T20:53:53.468Z,20.70
2022-08-17T20:57:34.480Z,20.59
2022-08-17T21:00:58.979Z,20.52
2022-08-17T21:04:49.905Z,20.50
2022-08-17T21:08:13.122Z,20.49
2022-08-17T21:12:04.166Z,20.44
2022-08-17T21:15:35.901Z,20.36
2022-08-17T21:20:07.666Z,20.31
2022-08-17T21:23:35.325Z,20.20
2022-08-17T21:27:29.160Z,20.10
2022-08-17T21:31:29.438Z,20.03
2022-08-17T21:35:19.274Z,19.96
2022-08-17T21:38:42.311Z,19.91
2022-08-17T21:42:25.817Z,19.80
2022-08-17T21:45:59.775Z,19.75
2022-08-17T21:49:31.453Z,19.70
2022-08-17T21:53:47.560Z,19.67
2022-08-17T21:57:17.397Z,19.54
2022-08-17T22:00:45.769Z,19.46
2022-08-17T22:04:42.267Z,19.42
2022-08-17T22:08:16.421Z,19.41
2022-08-17T22:12:02.360Z,19.37
2022-08-17T22:15:25.028Z,19.28
2022-08-17T22:19:01.970Z,19.20
2022-08-17T22:23:19.298Z,19.08
2022-08-17T22:27:02.823Z,19.05
2022-08-17T22:30:33.244Z,19.05
2022-08-17T22:34:21.046Z,19.03
2022-08-17T22:37:42.629Z,18.99
2022-08-17T22:41:54.681Z,18.92
2022-08-17T22:45:17.093Z,18.86
2022-08-17T22:49:22.745Z,18.81
2022-08-17T22:53:03.758Z,18.77
2022-08-17T22:56:45.386Z,18.75
2022-08-17T23:00:47.058Z,18.75
2022-08-17T23:04:38.877Z,18.74
2022-08-17T23:08:00.116Z,18.72
2022-08-17T23:11:48.827Z,18.68
2022-08-17T23:15:17.750Z,18.59
2022-08-17T23:18:51.675Z,18.53
2022-08-17T23:22:52.507Z,18.46
2022-08-17T23:26:14.920Z,18.48
2022-08-17T23:29:51.912Z,18.51
2022-08-17T23:33:48.968Z,18.53
2022-08-17T23:37:29.165Z,18.54
2022-08-17T23:41:15.015Z,18.48
2022-08-17T23:44:38.025Z,18.37
2022-08-17T23:48:13.772Z,18.31
2022-08-17T23:51:53.734Z,18.30
2022-08-17T23:55:34.595Z,18.32
2022-08-17T23:59:04.155Z,18.31
